Time;durP1;ratioP1;P1;durP2;ratioP2;P2;SDS_P1;SDS_P2;PMS_P1;PMS_P2;Temp;Humidity;BMP_temperature;BMP_pressure;BME280_temperature;BME280_humidity;BME280_pressure;Samples;Min_cycle;Max_cycle;Signal;HPM_P1;HPM_P2
2022/06/26 00:01:46;;;;;;;4.82;3.42;;;19.20;99.90;;;;;;6679240;89;20236;-80
2022/06/26 00:11:47;;;;;;;10.10;3.80;;;19.20;99.90;;;;;;6677525;89;20386;-80
2022/06/26 00:21:47;;;;;;;4.97;2.83;;;19.30;99.90;;;;;;6675077;89;20725;-80
2022/06/26 00:31:48;;;;;;;6.35;3.35;;;19.30;99.90;;;;;;6676571;88;20200;-80
2022/06/26 00:41:51;;;;;;;4.70;3.05;;;19.30;99.90;;;;;;6678261;89;20262;-79
2022/06/26 00:51:53;;;;;;;4.43;2.97;;;19.40;99.90;;;;;;6674809;89;20189;-80
2022/06/26 01:01:54;;;;;;;4.82;3.00;;;19.40;99.90;;;;;;6673137;89;20764;-80
2022/06/26 01:11:55;;;;;;;4.00;2.92;;;19.30;99.90;;;;;;6680838;89;20208;-80
2022/06/26 01:21:55;;;;;;;3.90;2.90;;;19.30;99.90;;;;;;6675136;89;20412;-80
2022/06/26 01:31:56;;;;;;;5.47;3.28;;;19.20;99.90;;;;;;6676044;89;20192;-80
2022/06/26 01:41:57;;;;;;;4.77;3.60;;;19.00;99.90;;;;;;6673750;89;20252;-78
2022/06/26 01:51:57;;;;;;;4.20;3.40;;;18.80;99.90;;;;;;6672816;89;20204;-79
2022/06/26 02:01:58;;;;;;;4.80;3.47;;;18.70;99.90;;;;;;6673845;89;21046;-77
2022/06/26 02:22:18;;;;;;;4.18;3.10;;;18.80;99.90;;;;;;6675633;88;20304;-79
2022/06/26 02:32:18;;;;;;;4.62;3.15;;;18.80;99.90;;;;;;6676374;89;20790;-79
2022/06/26 02:42:19;;;;;;;4.72;3.17;;;18.50;99.90;;;;;;6676832;89;20261;-79
2022/06/26 02:52:19;;;;;;;4.28;3.58;;;18.70;99.90;;;;;;6674227;89;20210;-80
2022/06/26 03:02:20;;;;;;;5.97;3.50;;;18.60;99.90;;;;;;6677900;88;20200;-79
2022/06/26 03:12:20;;;;;;;4.87;3.90;;;18.50;99.90;;;;;;6671476;89;20301;-78
2022/06/26 03:22:21;;;;;;;4.47;3.55;;;18.30;99.90;;;;;;6667033;88;20273;-79
2022/06/26 03:32:21;;;;;;;5.15;4.10;;;18.20;99.90;;;;;;6673098;89;20309;-79
2022/06/26 03:42:22;;;;;;;9.27;4.55;;;18.20;99.90;;;;;;6673447;89;20334;-78
2022/06/26 03:52:24;;;;;;;6.05;3.78;;;17.90;99.90;;;;;;6672672;89;20191;-78
2022/06/26 04:02:25;;;;;;;7.65;3.95;;;17.90;99.90;;;;;;6680129;89;20214;-76
2022/06/26 04:12:26;;;;;;;5.68;4.07;;;18.20;99.90;;;;;;6689498;89;20195;-80
2022/06/26 04:22:26;;;;;;;8.43;4.30;;;17.90;99.90;;;;;;6682400;89;20614;-80
2022/06/26 04:32:27;;;;;;;3.97;3.25;;;17.80;99.90;;;;;;6685017;89;20209;-81
2022/06/26 04:42:27;;;;;;;7.95;4.37;;;17.80;99.90;;;;;;6684418;89;20211;-81
2022/06/26 04:52:28;;;;;;;7.22;4.93;;;17.90;99.90;;;;;;6684967;89;20207;-79
2022/06/26 05:02:28;;;;;;;6.72;4.03;;;17.80;99.90;;;;;;6679539;89;20342;-80
2022/06/26 05:12:29;;;;;;;6.70;3.80;;;17.90;99.90;;;;;;6678366;89;20219;-80
2022/06/26 05:22:29;;;;;;;5.57;3.53;;;17.90;99.90;;;;;;6676454;89;20276;-80
2022/06/26 05:32:30;;;;;;;4.93;3.10;;;18.00;99.90;;;;;;6671814;89;20208;-79
2022/06/26 05:42:30;;;;;;;3.53;2.40;;;18.20;99.90;;;;;;6674021;89;20271;-80
2022/06/26 05:52:31;;;;;;;6.05;2.20;;;18.30;99.90;;;;;;6675984;89;20619;-79
2022/06/26 06:02:32;;;;;;;1.95;1.37;;;18.70;99.90;;;;;;6671286;89;20350;-78
2022/06/26 06:12:33;;;;;;;4.28;1.10;;;18.60;99.90;;;;;;6671108;89;20258;-79
2022/06/26 06:22:34;;;;;;;2.67;1.27;;;18.30;99.90;;;;;;6672291;89;20257;-79
2022/06/26 06:32:35;;;;;;;3.35;1.30;;;18.30;99.90;;;;;;6668073;89;20850;-78
2022/06/26 06:42:36;;;;;;;4.82;1.50;;;18.70;99.90;;;;;;6672696;89;20630;-79
2022/06/26 06:52:37;;;;;;;2.20;1.33;;;19.00;99.90;;;;;;6666253;89;20207;-79
2022/06/26 07:02:38;;;;;;;2.43;1.37;;;19.50;99.90;;;;;;6671822;89;20229;-78
2022/06/26 07:12:39;;;;;;;5.10;1.65;;;19.50;99.90;;;;;;6673949;89;20200;-76
2022/06/26 07:22:40;;;;;;;2.28;1.10;;;20.10;99.90;;;;;;6660740;89;20609;-79
2022/06/26 07:32:40;;;;;;;4.20;1.30;;;19.90;99.90;;;;;;6670618;89;20360;-80
2022/06/26 07:42:41;;;;;;;3.92;1.33;;;20.20;99.90;;;;;;6672948;89;20754;-80
2022/06/26 07:52:41;;;;;;;3.00;1.30;;;20.50;99.90;;;;;;6670490;89;20325;-80
2022/06/26 08:02:42;;;;;;;3.17;1.30;;;20.50;99.90;;;;;;6674313;89;20209;-81
2022/06/26 08:12:42;;;;;;;4.60;1.50;;;20.80;99.90;;;;;;6675566;88;20668;-80
2022/06/26 08:22:43;;;;;;;4.22;2.00;;;20.80;99.90;;;;;;6675504;89;20777;-81
2022/06/26 08:32:44;;;;;;;4.37;1.52;;;20.80;99.90;;;;;;6677997;89;20315;-81
2022/06/26 08:42:48;;;;;;;3.97;1.70;;;20.80;99.90;;;;;;6678711;89;20217;-79
2022/06/26 08:52:51;;;;;;;6.18;1.70;;;20.80;99.90;;;;;;6681190;89;20200;-81
2022/06/26 09:02:51;;;;;;;4.65;1.73;;;20.90;99.90;;;;;;6678791;89;20663;-79
2022/06/26 09:12:54;;;;;;;3.35;1.70;;;21.20;99.90;;;;;;6676366;89;20196;-79
2022/06/26 09:22:57;;;;;;;3.00;1.50;;;22.10;99.90;;;;;;6673797;89;20268;-80
2022/06/26 09:33:00;;;;;;;3.83;1.33;;;23.80;99.90;;;;;;6658337;89;20301;-78
2022/06/26 09:43:00;;;;;;;3.97;1.47;;;24.90;99.90;;;;;;6673777;89;20183;-79
2022/06/26 09:53:02;;;;;;;4.53;1.20;;;24.60;99.90;;;;;;6666034;89;20678;-78
2022/06/26 10:13:24;;;;;;;3.30;1.37;;;24.20;99.90;;;;;;6668993;89;20204;-78
2022/06/26 10:23:36;;;;;;;2.65;1.60;;;24.00;99.90;;;;;;6677053;89;20724;-78
2022/06/26 10:33:47;;;;;;;4.55;1.50;;;23.60;99.90;;;;;;6676865;89;20273;-78
2022/06/26 10:43:57;;;;;;;7.72;4.43;;;23.60;99.90;;;;;;6669857;89;20487;-79
2022/06/26 10:53:57;;;;;;;3.22;1.30;;;23.50;99.90;;;;;;6668986;89;20187;-79
2022/06/26 11:04:02;;;;;;;1.90;1.20;;;23.20;99.90;;;;;;6677122;89;20250;-82
2022/06/26 11:14:06;;;;;;;3.37;1.20;;;23.30;99.90;;;;;;6667310;88;20204;-79
2022/06/26 11:24:07;;;;;;;2.58;1.15;;;23.00;99.90;;;;;;6668397;88;20309;-82
2022/06/26 11:34:12;;;;;;;2.72;1.20;;;23.10;99.90;;;;;;6673433;89;20250;-80
2022/06/26 11:44:13;;;;;;;2.58;1.25;;;23.20;99.90;;;;;;6681431;89;20211;-81
2022/06/26 11:54:23;;;;;;;1.80;1.10;;;23.30;99.90;;;;;;6681278;89;20199;-78
2022/06/26 12:04:24;;;;;;;3.55;1.20;;;23.30;99.90;;;;;;6683439;88;20279;-78
2022/06/26 12:14:25;;;;;;;1.52;1.15;;;23.20;99.90;;;;;;6693966;88;20288;-80
2022/06/26 12:24:26;;;;;;;2.33;1.45;;;23.20;99.90;;;;;;6704227;88;20201;-81
2022/06/26 12:34:26;;;;;;;1.70;0.98;;;22.60;99.90;;;;;;6697621;88;20677;-81
2022/06/26 12:44:27;;;;;;;2.72;1.10;;;22.10;99.90;;;;;;6706896;88;20217;-82
2022/06/26 12:54:28;;;;;;;2.17;1.08;;;22.00;99.90;;;;;;6695617;89;20682;-80
2022/06/26 13:04:29;;;;;;;2.47;1.48;;;21.30;99.90;;;;;;6689522;89;20798;-80
2022/06/26 13:24:39;;;;;;;2.58;1.75;;;21.00;99.90;;;;;;6720859;88;20208;-84
2022/06/26 14:07:29;;;;;;;3.03;1.90;;;21.10;99.90;;;;;;6733842;88;20168;-84
2022/06/26 14:17:32;;;;;;;2.65;1.58;;;21.10;99.90;;;;;;6752858;88;20159;-85
2022/06/26 14:38:18;;;;;;;2.97;1.80;;;21.40;99.90;;;;;;6753661;77;20203;-80
2022/06/26 14:48:18;;;;;;;3.65;1.80;;;21.40;99.90;;;;;;6685644;88;20203;-80
2022/06/26 14:58:25;;;;;;;2.57;1.80;;;21.60;99.90;;;;;;6694460;88;20203;-81
2022/06/26 15:08:26;;;;;;;3.62;2.05;;;21.40;99.90;;;;;;6693896;88;20999;-84
2022/06/26 15:18:26;;;;;;;4.60;1.90;;;21.30;99.90;;;;;;6681177;89;20176;-83
2022/06/26 15:28:27;;;;;;;2.28;1.87;;;21.10;99.90;;;;;;6680828;89;20172;-84
2022/06/26 15:38:27;;;;;;;3.10;2.10;;;20.90;99.90;;;;;;6681053;89;20187;-85
2022/06/26 15:48:28;;;;;;;3.67;2.17;;;20.80;99.90;;;;;;6695869;88;20175;-85
2022/06/26 15:58:29;;;;;;;4.50;1.90;;;20.60;99.90;;;;;;6680030;88;20176;-82
2022/06/26 16:08:30;;;;;;;4.75;2.03;;;20.80;99.90;;;;;;6679276;89;20540;-85
2022/06/26 16:18:30;;;;;;;3.45;2.50;;;20.70;99.90;;;;;;6662776;89;20255;-83
2022/06/26 16:28:31;;;;;;;8.18;4.43;;;20.60;99.90;;;;;;6616199;89;20663;-83
2022/06/26 16:38:33;;;;;;;6.00;2.95;;;20.60;99.90;;;;;;6645815;89;20225;-86
2022/06/26 16:58:57;;;;;;;4.40;2.90;;;19.60;99.90;;;;;;6758564;78;20349;-85
2022/06/26 17:09:38;;;;;;;5.57;3.37;;;19.60;99.90;;;;;;6761828;77;20656;-83
2022/06/26 17:20:00;;;;;;;5.07;3.20;;;19.50;99.90;;;;;;6729227;78;20212;-85
2022/06/26 18:21:56;;;;;;;4.60;2.17;;;19.80;99.90;;;;;;4862088;77;21464;-83
2022/06/26 18:32:19;;;;;;;4.72;1.52;;;19.50;99.90;;;;;;6698165;88;20279;-83
2022/06/26 18:43:39;;;;;;;;;;;;;;;;;;;;;
2022/06/26 18:53:27;;;;;;;3.15;1.55;;;19.30;99.90;;;;;;6580725;90;20177;-83
2022/06/26 19:03:28;;;;;;;4.30;2.15;;;19.00;99.90;;;;;;6564376;89;20231;-82
2022/06/26 19:23:32;;;;;;;6.62;2.78;;;18.70;99.90;;;;;;6664716;88;20265;-85
2022/06/26 19:33:33;;;;;;;5.03;2.77;;;18.70;99.90;;;;;;6726745;88;20167;-85
2022/06/26 19:43:33;;;;;;;5.27;2.77;;;18.60;99.90;;;;;;6710460;88;20191;-84
2022/06/26 19:53:35;;;;;;;4.78;2.72;;;18.70;99.90;;;;;;6709954;88;20799;-84
2022/06/26 20:13:55;;;;;;;4.90;2.70;;;18.60;99.90;;;;;;6709168;88;20268;-81
2022/06/26 20:23:56;;;;;;;6.40;2.90;;;18.60;99.90;;;;;;6713686;88;20903;-83
2022/06/26 20:33:57;;;;;;;5.72;3.35;;;18.50;99.90;;;;;;6703403;88;20221;-80
2022/06/26 22:18:26;;;;;;;5.00;3.50;;;17.80;99.90;;;;;;6717695;88;20142;-86
2022/06/26 22:28:27;;;;;;;7.62;4.05;;;17.80;99.90;;;;;;6735974;88;20155;-86
2022/06/26 22:38:27;;;;;;;7.47;3.97;;;18.20;99.90;;;;;;6735245;88;20226;-86
2022/06/26 22:48:28;;;;;;;6.25;3.72;;;18.00;99.90;;;;;;6717959;88;20166;-84
2022/06/26 22:58:29;;;;;;;6.25;3.85;;;17.70;99.90;;;;;;6681883;89;20168;-84
2022/06/26 23:08:29;;;;;;;7.27;4.43;;;17.70;99.90;;;;;;6682091;89;20186;-86
2022/06/26 23:18:30;;;;;;;7.57;4.25;;;17.50;99.90;;;;;;6681852;89;20561;-86
2022/06/26 23:28:30;;;;;;;7.80;3.97;;;17.70;99.90;;;;;;6709719;88;20325;-86
2022/06/26 23:38:31;;;;;;;6.43;4.10;;;17.70;99.90;;;;;;6717375;88;20203;-88
2022/06/26 23:48:33;;;;;;;6.32;4.20;;;17.50;99.90;;;;;;6664370;89;20160;-86
2022/06/26 23:58:33;;;;;;;6.43;4.03;;;18.00;99.90;;;;;;6647633;89;20261;-86
